Time;durP1;ratioP1;P1;durP2;ratioP2;P2;SDS_P1;SDS_P2;PMS_P1;PMS_P2;Temp;Humidity;BMP_temperature;BMP_pressure;BME280_temperature;BME280_humidity;BME280_pressure;Samples;Min_cycle;Max_cycle;Signal;HPM_P1;HPM_P2
2020/04/17 00:00:54;;;;;;;15.1;8;;;;;;;12.7;55.72461;958.546;;;;
2020/04/17 00:03:19;;;;;;;16.8;7.8;;;;;;;12.69;56.99512;958.5958;;;;
2020/04/17 00:05:45;;;;;;;13.4;8.2;;;;;;;12.55;58.10938;958.5633;;;;
2020/04/17 00:08:10;;;;;;;10.9;7.7;;;;;;;12.48;57.99707;958.5472;;;;
2020/04/17 00:10:36;;;;;;;15;7.9;;;;;;;12.5;58.43848;958.5538;;;;
2020/04/17 00:13:01;;;;;;;10.6;7.5;;;;;;;12.59;57.15527;958.5955;;;;
2020/04/17 00:15:26;;;;;;;14.5;7.8;;;;;;;12.53;58.08398;958.5549;;;;
2020/04/17 00:17:51;;;;;;;13.5;7.6;;;;;;;12.5;58.31152;958.5761;;;;
2020/04/17 00:20:18;;;;;;;10.1;7.8;;;;;;;12.5;58.70313;958.5432;;;;
2020/04/17 00:22:43;;;;;;;12.8;7.4;;;;;;;12.48;57.97266;958.5659;;;;
2020/04/17 00:25:08;;;;;;;13.6;8.3;;;;;;;12.56;56.63086;958.5109;;;;
2020/04/17 00:27:51;;;;;;;12.2;7.4;;;;;;;12.62;58.0498;958.5098;;;;
2020/04/17 00:29:59;;;;;;;13.4;8.2;;;;;;;12.65;57.29004;958.5658;;;;
2020/04/17 00:32:25;;;;;;;12.1;7.5;;;;;;;12.62;57.40234;958.5737;;;;
2020/04/17 00:34:50;;;;;;;11;7.5;;;;;;;12.58;56.56348;958.4958;;;;
2020/04/17 00:37:15;;;;;;;14.1;8.1;;;;;;;12.71;57.81836;958.5574;;;;
2020/04/17 00:39:40;;;;;;;13.7;7.5;;;;;;;12.67;56.18359;958.5505;;;;
2020/04/17 00:42:05;;;;;;;14.7;7.8;;;;;;;12.66;57.44238;958.4925;;;;
2020/04/17 00:44:30;;;;;;;14.1;8;;;;;;;12.63;56.12109;958.5045;;;;
2020/04/17 00:46:55;;;;;;;10.6;7.6;;;;;;;12.66;57.87109;958.481;;;;
2020/04/17 00:49:21;;;;;;;10.2;7.8;;;;;;;12.67;57.18945;958.4336;;;;
2020/04/17 00:51:46;;;;;;;10.7;7.6;;;;;;;12.61;57.87402;958.3823;;;;
2020/04/17 00:54:11;;;;;;;12.5;7.5;;;;;;;12.56;58.51563;958.3981;;;;
2020/04/17 00:56:36;;;;;;;14.4;7.8;;;;;;;12.47;58.375;958.3376;;;;
2020/04/17 00:59:01;;;;;;;13.6;7.3;;;;;;;12.45;58.60449;958.3287;;;;
2020/04/17 01:01:28;;;;;;;11.1;7.5;;;;;;;12.29;59.4834;958.3621;;;;
2020/04/17 01:03:53;;;;;;;11.8;7.5;;;;;;;12.25;59.85938;958.3208;;;;
2020/04/17 01:06:18;;;;;;;11;7.8;;;;;;;12.02;59.81738;958.2929;;;;
2020/04/17 01:08:44;;;;;;;10.5;7.9;;;;;;;12.17;59.88281;958.3664;;;;
2020/04/17 01:11:14;;;;;;;11.2;7.2;;;;;;;12.04;60.17871;958.3652;;;;
2020/04/17 01:13:40;;;;;;;11.2;7;;;;;;;12.03;59.79492;958.3847;;;;
2020/04/17 01:16:00;;;;;;;10.9;7.4;;;;;;;12.08;60.02051;958.3303;;;;
2020/04/17 01:18:26;;;;;;;11.2;7.2;;;;;;;12.1;59.58594;958.3045;;;;
2020/04/17 01:20:51;;;;;;;10.8;7.4;;;;;;;12.09;60.6123;958.2914;;;;
2020/04/17 01:23:17;;;;;;;10.9;7.1;;;;;;;11.94;60.99512;958.262;;;;
2020/04/17 01:25:42;;;;;;;9.1;7;;;;;;;11.93;61.7666;958.2461;;;;
2020/04/17 01:28:08;;;;;;;9.4;7.6;;;;;;;11.82;61.85449;958.2244;;;;
2020/04/17 01:30:33;;;;;;;8.5;7.3;;;;;;;11.79;61.88574;958.2787;;;;
2020/04/17 01:32:58;;;;;;;12.2;7.8;;;;;;;11.76;62.14746;958.2668;;;;
2020/04/17 01:35:24;;;;;;;14.1;7.4;;;;;;;11.87;61.23926;958.2789;;;;
2020/04/17 01:37:49;;;;;;;13.6;7.4;;;;;;;11.75;62.2627;958.2805;;;;
2020/04/17 01:40:15;;;;;;;9.7;7.5;;;;;;;11.61;62.4834;958.3524;;;;
2020/04/17 01:42:40;;;;;;;12.9;7.7;;;;;;;11.59;62.95215;958.3275;;;;
2020/04/17 01:45:05;;;;;;;11.1;7.5;;;;;;;11.52;63.11719;958.3284;;;;
2020/04/17 01:47:32;;;;;;;10.2;7.4;;;;;;;11.57;62.30469;958.3713;;;;
2020/04/17 01:49:57;;;;;;;11.4;7.7;;;;;;;11.49;63.56152;958.4152;;;;
2020/04/17 01:52:23;;;;;;;11.7;7.6;;;;;;;11.45;63.46289;958.412;;;;
2020/04/17 01:54:48;;;;;;;13.6;8.1;;;;;;;11.38;63.56836;958.4928;;;;
2020/04/17 01:57:13;;;;;;;9.6;7.7;;;;;;;11.28;64.41797;958.4653;;;;
2020/04/17 01:59:40;;;;;;;11.9;7.5;;;;;;;11.38;64.43262;958.4731;;;;
2020/04/17 02:02:05;;;;;;;13.6;7.7;;;;;;;11.38;65.14746;958.5074;;;;
2020/04/17 02:04:30;;;;;;;9.5;7;;;;;;;11.39;63.62793;958.5123;;;;
2020/04/17 02:06:55;;;;;;;10.8;7.5;;;;;;;11.28;64.59082;958.5404;;;;
2020/04/17 02:09:20;;;;;;;10.7;7.2;;;;;;;11.34;64.42773;958.5258;;;;
2020/04/17 02:11:47;;;;;;;11;7.2;;;;;;;11.44;65.41211;958.4765;;;;
2020/04/17 02:14:12;;;;;;;10.7;7.4;;;;;;;11.4;64.83887;958.4531;;;;
2020/04/17 02:16:38;;;;;;;12.4;7.6;;;;;;;11.47;63.58105;958.4459;;;;
2020/04/17 02:19:03;;;;;;;9.9;7.5;;;;;;;11.4;63.75488;958.4883;;;;
2020/04/17 02:21:29;;;;;;;13.7;7.5;;;;;;;11.43;64.75195;958.5058;;;;
2020/04/17 02:23:54;;;;;;;11.3;7.6;;;;;;;11.28;65.35156;958.4972;;;;
2020/04/17 02:26:21;;;;;;;8.2;7.3;;;;;;;11.31;65.14941;958.4543;;;;
2020/04/17 02:28:46;;;;;;;10.6;7.4;;;;;;;11.19;66.14648;958.4975;;;;
2020/04/17 02:31:11;;;;;;;10;7.2;;;;;;;11.16;65.26465;958.4236;;;;
2020/04/17 02:33:37;;;;;;;9.9;7;;;;;;;11.15;65.25391;958.4396;;;;
2020/04/17 02:36:03;;;;;;;10.1;7.2;;;;;;;11.12;66.08984;958.4025;;;;
2020/04/17 02:38:28;;;;;;;11.7;7;;;;;;;11.04;66.45703;958.4357;;;;
2020/04/17 02:40:55;;;;;;;9.4;7.2;;;;;;;11.11;66.12109;958.4277;;;;
2020/04/17 02:43:20;;;;;;;10.5;7.3;;;;;;;11.07;66.23145;958.3995;;;;
2020/04/17 02:45:46;;;;;;;10.5;7.1;;;;;;;10.96;66.53711;958.3953;;;;
2020/04/17 02:48:11;;;;;;;9.2;7;;;;;;;10.95;67.25;958.405;;;;
2020/04/17 02:50:37;;;;;;;9.9;7.6;;;;;;;10.81;67.11133;958.4182;;;;
2020/04/17 02:53:02;;;;;;;10.4;7.5;;;;;;;10.9;66.30859;958.3804;;;;
2020/04/17 02:55:28;;;;;;;10.7;7.1;;;;;;;10.94;67.00684;958.4111;;;;
2020/04/17 02:57:54;;;;;;;10.5;6.9;;;;;;;10.85;67.31543;958.356;;;;
2020/04/17 03:00:25;;;;;;;9.9;7.2;;;;;;;10.91;67.85449;958.4131;;;;
2020/04/17 03:02:45;;;;;;;11.5;7.8;;;;;;;10.94;66.75293;958.3605;;;;
2020/04/17 03:05:11;;;;;;;14.3;7.9;;;;;;;10.93;67.24609;958.3246;;;;
2020/04/17 03:07:36;;;;;;;12.1;7.4;;;;;;;10.79;67.62793;958.2767;;;;
2020/04/17 03:10:02;;;;;;;10.7;7.6;;;;;;;10.77;67.95801;958.2877;;;;
2020/04/17 03:12:27;;;;;;;10.5;7.2;;;;;;;10.77;67.71582;958.2864;;;;
2020/04/17 03:14:53;;;;;;;10.5;7.2;;;;;;;10.78;67.76367;958.2676;;;;
2020/04/17 03:17:18;;;;;;;10.1;7;;;;;;;10.66;68.45898;958.2714;;;;
2020/04/17 03:19:45;;;;;;;8.9;7.1;;;;;;;10.73;68.0918;958.2554;;;;
2020/04/17 03:22:10;;;;;;;8.4;7.2;;;;;;;10.69;68.71582;958.2491;;;;
2020/04/17 03:24:36;;;;;;;10.2;7;;;;;;;10.67;69.19727;958.2071;;;;
2020/04/17 03:27:02;;;;;;;10.6;7.5;;;;;;;10.62;68.64844;958.209;;;;
2020/04/17 03:29:27;;;;;;;10.6;7.9;;;;;;;10.73;68.37793;958.2626;;;;
2020/04/17 03:31:52;;;;;;;11.8;7.5;;;;;;;10.66;68.68945;958.2983;;;;
2020/04/17 03:34:19;;;;;;;7.6;6.6;;;;;;;10.6;69.11621;958.2957;;;;
2020/04/17 03:36:44;;;;;;;9.6;7.1;;;;;;;10.63;68.96094;958.2791;;;;
2020/04/17 03:39:10;;;;;;;10.4;7.2;;;;;;;10.55;68.5918;958.223;;;;
2020/04/17 03:41:35;;;;;;;11.3;7.3;;;;;;;10.44;69.88574;958.2483;;;;
2020/04/17 03:44:01;;;;;;;10.5;7.5;;;;;;;10.46;70.45313;958.2321;;;;
2020/04/17 03:46:26;;;;;;;10.8;6.9;;;;;;;10.56;69.2373;958.2346;;;;
2020/04/17 03:48:52;;;;;;;8.2;6.7;;;;;;;10.48;69.25879;958.2358;;;;
2020/04/17 03:51:17;;;;;;;10.2;7.1;;;;;;;10.47;69.24414;958.2859;;;;
2020/04/17 03:53:42;;;;;;;13.1;7.2;;;;;;;10.43;68.99902;958.327;;;;
2020/04/17 03:56:07;;;;;;;11.4;7.2;;;;;;;10.43;69.55078;958.3489;;;;
2020/04/17 03:58:32;;;;;;;12.1;7.3;;;;;;;10.48;70.4668;958.3703;;;;
2020/04/17 04:02:28;;;;;;;10.4;7.3;;;;;;;10.41;69.70801;958.3855;;;;
2020/04/17 04:04:53;;;;;;;11.6;7.2;;;;;;;10.44;69.62109;958.3826;;;;
2020/04/17 04:07:19;;;;;;;10.5;7.4;;;;;;;10.45;69.73633;958.3851;;;;
2020/04/17 04:09:44;;;;;;;10.9;7.3;;;;;;;10.35;70.30859;958.4169;;;;
2020/04/17 04:12:09;;;;;;;11.4;6.7;;;;;;;10.34;70.14453;958.4166;;;;
2020/04/17 04:14:35;;;;;;;12;7.2;;;;;;;10.29;70.36719;958.3279;;;;
2020/04/17 04:17:00;;;;;;;14.5;7.8;;;;;;;10.18;71.29102;958.3043;;;;
2020/04/17 04:19:24;;;;;;;11.6;7.3;;;;;;;10.17;70.62305;958.3336;;;;
2020/04/17 04:21:49;;;;;;;9.5;7.1;;;;;;;10.27;71.49121;958.338;;;;
2020/04/17 04:24:16;;;;;;;8.8;7;;;;;;;10.27;71.00879;958.3298;;;;
2020/04/17 04:26:41;;;;;;;9.4;7;;;;;;;10.32;71.59277;958.3895;;;;
2020/04/17 04:29:07;;;;;;;8.7;6.5;;;;;;;10.39;69.84277;958.3703;;;;
2020/04/17 04:31:32;;;;;;;10.8;6.5;;;;;;;10.25;70.29102;958.395;;;;
2020/04/17 04:33:58;;;;;;;9.1;6.5;;;;;;;10.39;70.85547;958.4142;;;;
2020/04/17 04:36:23;;;;;;;11.7;7.3;;;;;;;10.28;71.10059;958.4277;;;;
2020/04/17 04:38:49;;;;;;;10.8;6.8;;;;;;;10.24;70.93555;958.4594;;;;
2020/04/17 04:41:14;;;;;;;9.3;6.8;;;;;;;10.17;71.26855;958.4484;;;;
2020/04/17 04:43:40;;;;;;;10.1;7;;;;;;;10.34;70.2832;958.4858;;;;
2020/04/17 04:46:05;;;;;;;8.5;6.5;;;;;;;10.23;71.30176;958.4308;;;;
2020/04/17 04:48:30;;;;;;;9.1;6.7;;;;;;;10.31;71.10645;958.4127;;;;
2020/04/17 04:50:55;;;;;;;10.4;6.9;;;;;;;10.28;71.14648;958.4797;;;;
2020/04/17 04:53:21;;;;;;;9.8;6.7;;;;;;;10.37;69.3125;958.4423;;;;
2020/04/17 04:55:46;;;;;;;9.2;6.9;;;;;;;10.47;70.01855;958.4989;;;;
2020/04/17 04:58:11;;;;;;;11;7;;;;;;;10.46;70.43945;958.4984;;;;
2020/04/17 05:00:36;;;;;;;12;7;;;;;;;10.4;69.55762;958.4902;;;;
2020/04/17 05:03:01;;;;;;;10.4;6.9;;;;;;;10.52;68.63184;958.5061;;;;
2020/04/17 05:05:26;;;;;;;11.6;6.7;;;;;;;10.56;68.68457;958.5115;;;;
2020/04/17 05:07:51;;;;;;;8.8;6.6;;;;;;;10.64;67.9375;958.5276;;;;
2020/04/17 05:10:16;;;;;;;11.4;7.1;;;;;;;10.75;68.08105;958.6103;;;;
2020/04/17 05:12:41;;;;;;;14.1;7;;;;;;;10.71;67.63672;958.5865;;;;
2020/04/17 05:15:08;;;;;;;10.3;6.7;;;;;;;10.97;67.26465;958.6188;;;;
2020/04/17 05:17:33;;;;;;;11.5;6.6;;;;;;;11.06;66.45898;958.6094;;;;
2020/04/17 05:19:58;;;;;;;10.1;7;;;;;;;11.23;65.74707;958.6268;;;;
2020/04/17 05:22:23;;;;;;;11.3;7;;;;;;;11.41;66.81348;958.5609;;;;
2020/04/17 05:24:48;;;;;;;11.9;7;;;;;;;11.48;67.37793;958.5594;;;;
2020/04/17 05:27:14;;;;;;;13.1;7;;;;;;;11.65;66.78125;958.5323;;;;
2020/04/17 05:29:39;;;;;;;12.4;7.4;;;;;;;11.75;66.41602;958.5368;;;;
2020/04/17 05:32:05;;;;;;;14.6;7.6;;;;;;;11.86;65.78613;958.5108;;;;
2020/04/17 05:34:30;;;;;;;11.1;7.7;;;;;;;11.94;67.19531;958.5282;;;;
2020/04/17 05:36:57;;;;;;;11.4;7.1;;;;;;;12.05;65.72363;958.535;;;;
2020/04/17 05:39:22;;;;;;;10.8;7.1;;;;;;;12.01;66.61719;958.5894;;;;
2020/04/17 05:41:48;;;;;;;10.5;6.6;;;;;;;12.02;65.52148;958.6066;;;;
2020/04/17 05:44:13;;;;;;;11.3;7.2;;;;;;;12.06;66.09277;958.5795;;;;
2020/04/17 05:46:40;;;;;;;12.9;6.7;;;;;;;12.12;64.34863;958.603;;;;
2020/04/17 05:49:11;;;;;;;11.5;7.2;;;;;;;12.17;65.05957;958.6393;;;;
2020/04/17 05:51:40;;;;;;;9.6;6.8;;;;;;;12.11;66.44727;958.6647;;;;
2020/04/17 05:54:05;;;;;;;9.6;6.5;;;;;;;12.06;66.99512;958.635;;;;
2020/04/17 05:56:20;;;;;;;10.9;7;;;;;;;12.09;67.11621;958.6599;;;;
2020/04/17 05:58:45;;;;;;;12.3;7;;;;;;;12.08;67.18164;958.7076;;;;
2020/04/17 06:01:12;;;;;;;11.4;6.7;;;;;;;12.24;66.21387;958.7318;;;;
2020/04/17 06:03:37;;;;;;;9.4;6;;;;;;;12.31;66.2002;958.7545;;;;
2020/04/17 06:06:03;;;;;;;14.4;6.8;;;;;;;12.4;64.64355;958.7391;;;;
2020/04/17 06:08:28;;;;;;;12.3;7;;;;;;;12.49;64.85254;958.7622;;;;
2020/04/17 06:10:54;;;;;;;12.2;6.6;;;;;;;12.57;66.77246;958.7819;;;;
2020/04/17 06:13:19;;;;;;;10.4;6.4;;;;;;;12.64;65.48828;958.8061;;;;
2020/04/17 06:15:44;;;;;;;14.2;6.9;;;;;;;12.78;64.53809;958.8166;;;;
2020/04/17 06:18:10;;;;;;;13;7.3;;;;;;;12.87;64.39941;958.8166;;;;
2020/04/17 06:20:35;;;;;;;13.1;7.2;;;;;;;13.01;65.67188;958.7693;;;;
2020/04/17 06:23:01;;;;;;;14;6.7;;;;;;;13.07;64.06055;958.8061;;;;
2020/04/17 06:25:26;;;;;;;13.5;6.7;;;;;;;13.19;63.09375;958.8086;;;;
2020/04/17 06:27:51;;;;;;;12.5;6.6;;;;;;;13.2;64.29785;958.8495;;;;
2020/04/17 06:30:16;;;;;;;11.6;6.9;;;;;;;13.26;65.52344;958.7938;;;;
2020/04/17 06:32:41;;;;;;;11.2;6;;;;;;;13.38;61.83398;958.7636;;;;
2020/04/17 06:35:06;;;;;;;10.4;6.2;;;;;;;13.43;63.7998;958.7567;;;;
2020/04/17 06:37:32;;;;;;;9.2;5.9;;;;;;;13.44;63.4541;958.7131;;;;
2020/04/17 06:39:57;;;;;;;8.6;5.8;;;;;;;13.57;62.97461;958.6812;;;;
2020/04/17 06:42:22;;;;;;;11.5;5.9;;;;;;;13.79;60.76855;958.7011;;;;
2020/04/17 06:44:47;;;;;;;11.7;5.8;;;;;;;13.84;61.49512;958.6351;;;;
2020/04/17 06:47:12;;;;;;;10.7;6.1;;;;;;;13.98;59.73926;958.6506;;;;
2020/04/17 06:49:37;;;;;;;9.5;5.1;;;;;;;14.03;59.79297;958.7106;;;;
2020/04/17 06:52:03;;;;;;;13.7;5.5;;;;;;;14.04;59.36426;958.7319;;;;
2020/04/17 06:54:28;;;;;;;9.5;5.6;;;;;;;14.14;59.08789;958.7084;;;;
2020/04/17 06:56:54;;;;;;;10.8;5.3;;;;;;;14.3;57.57715;958.7015;;;;
2020/04/17 06:59:19;;;;;;;11.7;5.9;;;;;;;14.29;56.99512;958.7369;;;;
2020/04/17 07:01:44;;;;;;;16.8;5.3;;;;;;;14.37;57.40039;958.7299;;;;
2020/04/17 07:04:10;;;;;;;10;5.2;;;;;;;14.47;56.40332;958.7521;;;;
2020/04/17 07:06:35;;;;;;;9.5;5.1;;;;;;;14.69;55.7832;958.6981;;;;
2020/04/17 07:09:00;;;;;;;7.9;4.9;;;;;;;14.75;54.59277;958.6169;;;;
2020/04/17 07:11:25;;;;;;;10;5.1;;;;;;;14.82;54.57715;958.6121;;;;
2020/04/17 07:13:50;;;;;;;7.3;5;;;;;;;14.82;54.82227;958.6178;;;;
2020/04/17 07:16:15;;;;;;;9.6;5.1;;;;;;;14.81;54.23926;958.6401;;;;
2020/04/17 07:18:40;;;;;;;10.9;5.1;;;;;;;14.82;54.41504;958.5974;;;;
2020/04/17 07:21:07;;;;;;;8.4;5;;;;;;;14.9;53.70508;958.5712;;;;
2020/04/17 07:23:32;;;;;;;11.4;5.3;;;;;;;15.04;54.08203;958.6178;;;;
2020/04/17 07:25:58;;;;;;;11.9;5.4;;;;;;;15.24;54.17578;958.6105;;;;
2020/04/17 07:28:24;;;;;;;9.3;5.1;;;;;;;15.26;53.37598;958.6573;;;;
2020/04/17 07:30:50;;;;;;;9.7;4.9;;;;;;;15.4;53.25488;958.7037;;;;
2020/04/17 07:33:15;;;;;;;8;4.5;;;;;;;15.66;52.0625;958.6699;;;;
2020/04/17 07:35:42;;;;;;;11.3;4.5;;;;;;;15.71;52.69824;958.6766;;;;
2020/04/17 07:38:07;;;;;;;7.3;4.4;;;;;;;15.7;52.61523;958.6305;;;;
2020/04/17 07:40:34;;;;;;;10.8;4.4;;;;;;;15.71;52.62891;958.6019;;;;
2020/04/17 07:42:59;;;;;;;7.7;4.8;;;;;;;15.87;52.29785;958.6334;;;;
2020/04/17 07:45:25;;;;;;;10.5;4.6;;;;;;;15.94;51.65234;958.5977;;;;
2020/04/17 07:47:50;;;;;;;9.9;4.9;;;;;;;16.08;51.4248;958.5628;;;;
2020/04/17 07:50:16;;;;;;;10.1;5;;;;;;;16.23;50.97656;958.5703;;;;
2020/04/17 07:52:41;;;;;;;12.4;4.8;;;;;;;16.17;50.38574;958.5352;;;;
2020/04/17 07:55:08;;;;;;;8.3;4.6;;;;;;;16.28;49.57031;958.5522;;;;
2020/04/17 07:57:33;;;;;;;9.7;5;;;;;;;16.33;49.66992;958.5673;;;;
2020/04/17 07:59:59;;;;;;;7.3;4.7;;;;;;;16.31;49.44727;958.6053;;;;
2020/04/17 08:02:24;;;;;;;8.3;4.7;;;;;;;16.43;49.13281;958.59;;;;
2020/04/17 08:04:49;;;;;;;7.5;4.6;;;;;;;16.32;49.86719;958.5476;;;;
2020/04/17 08:07:14;;;;;;;7.4;4.8;;;;;;;16.35;49.59082;958.5804;;;;
2020/04/17 08:09:39;;;;;;;7.6;4.9;;;;;;;16.69;49.18555;958.5671;;;;
2020/04/17 08:12:05;;;;;;;7.7;4.9;;;;;;;16.66;49.10059;958.5909;;;;
2020/04/17 08:14:30;;;;;;;8.2;4.9;;;;;;;16.63;49.45898;958.6306;;;;
2020/04/17 08:16:57;;;;;;;10.4;5.5;;;;;;;16.7;49.21094;958.6468;;;;
2020/04/17 08:19:22;;;;;;;8.9;5.4;;;;;;;16.76;49.53223;958.6501;;;;
2020/04/17 08:21:48;;;;;;;8.2;5.3;;;;;;;16.84;48.75879;958.6636;;;;
2020/04/17 08:24:14;;;;;;;9.9;5.1;;;;;;;16.85;49.27344;958.6231;;;;
2020/04/17 08:26:40;;;;;;;8.8;4.9;;;;;;;16.95;49.00391;958.6486;;;;
2020/04/17 08:29:05;;;;;;;9;5.4;;;;;;;16.97;49.05371;958.6476;;;;
2020/04/17 08:31:31;;;;;;;11;5;;;;;;;17.11;49.24414;958.6253;;;;
2020/04/17 08:33:56;;;;;;;11.5;5.1;;;;;;;17.18;48.97168;958.6592;;;;
2020/04/17 08:36:23;;;;;;;10.6;5;;;;;;;17.36;48.99219;958.6708;;;;
2020/04/17 08:38:48;;;;;;;8.1;4.6;;;;;;;17.43;48.84863;958.6981;;;;
2020/04/17 08:41:15;;;;;;;6.1;4.5;;;;;;;17.56;48.34766;958.6486;;;;
2020/04/17 08:43:40;;;;;;;8.6;4.8;;;;;;;17.44;48.77832;958.6563;;;;
2020/04/17 08:46:06;;;;;;;8;4.9;;;;;;;17.61;48.73926;958.6172;;;;
2020/04/17 08:48:31;;;;;;;10.4;4.6;;;;;;;17.65;48.35742;958.613;;;;
2020/04/17 08:50:58;;;;;;;9.1;4.9;;;;;;;17.8;48.28027;958.6041;;;;
2020/04/17 08:53:23;;;;;;;10;5.1;;;;;;;17.95;48.22656;958.62;;;;
2020/04/17 08:55:49;;;;;;;8.9;5.3;;;;;;;17.89;48.20801;958.6174;;;;
2020/04/17 08:58:14;;;;;;;10.9;5.1;;;;;;;17.79;47.94043;958.6017;;;;
2020/04/17 09:00:41;;;;;;;8.6;5.2;;;;;;;17.81;48.14063;958.6133;;;;
2020/04/17 09:03:06;;;;;;;12.6;5.3;;;;;;;17.98;47.3877;958.5833;;;;
2020/04/17 09:05:33;;;;;;;10.2;5.4;;;;;;;18.1;47.86816;958.6114;;;;
2020/04/17 09:07:58;;;;;;;9.5;5;;;;;;;18.07;47.77148;958.5724;;;;
2020/04/17 09:10:25;;;;;;;10.6;5.7;;;;;;;18.17;47.5127;958.6298;;;;
2020/04/17 09:12:50;;;;;;;8.9;5.2;;;;;;;18.32;47.49414;958.575;;;;
2020/04/17 09:15:17;;;;;;;10.2;5.5;;;;;;;18.29;47.33789;958.5681;;;;
2020/04/17 09:17:42;;;;;;;11.2;5.7;;;;;;;18.12;47.58984;958.5914;;;;
2020/04/17 09:20:08;;;;;;;7.6;5.2;;;;;;;18.27;47.41895;958.5319;;;;
2020/04/17 09:22:33;;;;;;;10.4;5.7;;;;;;;18.53;47.65625;958.5055;;;;
2020/04/17 09:25:00;;;;;;;11.9;5.4;;;;;;;18.93;46.67969;958.5081;;;;
2020/04/17 09:27:25;;;;;;;10.4;5.3;;;;;;;19.12;46.44141;958.5251;;;;
2020/04/17 09:29:51;;;;;;;8.6;5;;;;;;;19.16;45.26074;958.4756;;;;
2020/04/17 09:32:16;;;;;;;9.5;6.1;;;;;;;18.86;44.9248;958.4728;;;;
2020/04/17 09:34:43;;;;;;;10.8;5.7;;;;;;;19.16;43.96973;958.5103;;;;
2020/04/17 09:37:08;;;;;;;11.2;5.6;;;;;;;19.23;44.04688;958.4684;;;;
2020/04/17 09:39:34;;;;;;;10;5.7;;;;;;;19.19;43.99512;958.4711;;;;
2020/04/17 09:41:59;;;;;;;9.3;5.6;;;;;;;19.32;43.76172;958.4704;;;;
2020/04/17 09:44:27;;;;;;;13.5;6;;;;;;;19.45;43.24609;958.4328;;;;
2020/04/17 09:46:52;;;;;;;10.7;5.9;;;;;;;19.43;43.19629;958.4604;;;;
2020/04/17 09:49:18;;;;;;;11.4;5.5;;;;;;;19.46;43.77539;958.4285;;;;
2020/04/17 09:51:43;;;;;;;13.7;5.9;;;;;;;19.55;43.57422;958.4233;;;;
2020/04/17 09:54:10;;;;;;;12.1;6.3;;;;;;;19.55;43.70313;958.3555;;;;
2020/04/17 09:56:40;;;;;;;10.6;5.8;;;;;;;19.68;43.32813;958.4239;;;;
2020/04/17 09:59:06;;;;;;;10.2;5.8;;;;;;;19.74;42.38086;958.3987;;;;
2020/04/17 10:01:32;;;;;;;10.6;5.3;;;;;;;19.68;42.01172;958.3495;;;;
2020/04/17 10:03:58;;;;;;;9.3;5.9;;;;;;;19.69;42.68164;958.3917;;;;
2020/04/17 10:06:23;;;;;;;10.7;5.4;;;;;;;19.69;42.97559;958.3387;;;;
2020/04/17 10:08:50;;;;;;;10.1;6;;;;;;;19.55;43.40918;958.277;;;;
2020/04/17 10:11:15;;;;;;;11.3;6.2;;;;;;;19.67;43.31543;958.252;;;;
2020/04/17 10:13:41;;;;;;;11.7;6.3;;;;;;;19.76;43.32422;958.2529;;;;
2020/04/17 10:16:06;;;;;;;11.5;5.7;;;;;;;19.8;42.68066;958.1867;;;;
2020/04/17 10:18:33;;;;;;;10.1;6.2;;;;;;;20.07;42.35547;958.155;;;;
2020/04/17 10:20:58;;;;;;;11.8;5.3;;;;;;;19.95;41.35547;958.1664;;;;
2020/04/17 10:23:23;;;;;;;11.3;5.5;;;;;;;19.89;40.86719;958.0948;;;;
2020/04/17 10:25:52;;;;;;;12;5.8;;;;;;;20.05;41.83594;958.1031;;;;
2020/04/17 10:28:17;;;;;;;10.5;5.7;;;;;;;20.03;41.31543;958.0804;;;;
2020/04/17 10:30:42;;;;;;;11.1;5.6;;;;;;;20.38;41.66602;958.1097;;;;
2020/04/17 10:33:07;;;;;;;9.2;5.3;;;;;;;20.42;41.64648;958.0912;;;;
2020/04/17 10:35:34;;;;;;;9.9;5.3;;;;;;;20.37;41.00586;958.1105;;;;
2020/04/17 10:37:59;;;;;;;9.4;5.3;;;;;;;20.41;41.26953;958.0385;;;;
2020/04/17 10:40:25;;;;;;;10.8;5.2;;;;;;;20.41;41.58594;958.0435;;;;
2020/04/17 10:42:50;;;;;;;10.1;5.6;;;;;;;20.41;41.02148;958.0193;;;;
2020/04/17 10:45:16;;;;;;;10.3;5;;;;;;;20.61;40.16992;958.0095;;;;
2020/04/17 10:47:41;;;;;;;9.3;5.1;;;;;;;20.68;40.08105;957.9954;;;;
2020/04/17 10:50:06;;;;;;;10.5;4.9;;;;;;;20.59;40.27344;957.9634;;;;
2020/04/17 10:52:33;;;;;;;11.1;5.7;;;;;;;20.84;40.54395;957.9724;;;;
2020/04/17 10:54:58;;;;;;;9.1;5.1;;;;;;;20.84;39.3418;957.9178;;;;
2020/04/17 10:57:24;;;;;;;11.3;6;;;;;;;20.91;40.25488;957.8734;;;;
2020/04/17 10:59:49;;;;;;;10.5;5.1;;;;;;;20.85;40.60352;957.8814;;;;
2020/04/17 11:02:17;;;;;;;8.7;5.2;;;;;;;21.03;40.56055;957.8172;;;;
2020/04/17 11:04:42;;;;;;;8.4;4.5;;;;;;;21;39.0498;957.7559;;;;
2020/04/17 11:07:08;;;;;;;8.6;4.8;;;;;;;20.93;39.26758;957.7109;;;;
2020/04/17 11:09:33;;;;;;;8.6;4.9;;;;;;;21.18;38.74707;957.7065;;;;
2020/04/17 11:11:58;;;;;;;11.5;5.4;;;;;;;21.42;39.38184;957.6998;;;;
2020/04/17 11:14:26;;;;;;;11.4;5.6;;;;;;;21.35;37.99414;957.577;;;;
2020/04/17 11:16:51;;;;;;;7.6;4.7;;;;;;;21.23;39.17578;957.4987;;;;
2020/04/17 11:19:16;;;;;;;12.6;4.8;;;;;;;21.16;38.13281;957.4973;;;;
2020/04/17 11:21:41;;;;;;;7.7;4.4;;;;;;;21.37;37.69043;957.4913;;;;
2020/04/17 11:24:06;;;;;;;8.1;4.3;;;;;;;21.36;36.8623;957.4603;;;;
2020/04/17 11:26:31;;;;;;;8.6;4.4;;;;;;;21.41;36.40723;957.4147;;;;
2020/04/17 11:28:56;;;;;;;8.2;4.2;;;;;;;21.77;35.83496;957.4023;;;;
2020/04/17 11:31:21;;;;;;;9.2;3.9;;;;;;;21.91;34.52246;957.4052;;;;
2020/04/17 11:33:47;;;;;;;8.1;3.5;;;;;;;21.63;35.00879;957.3624;;;;
2020/04/17 11:36:13;;;;;;;7.6;4.2;;;;;;;21.6;34.91211;957.2835;;;;
2020/04/17 11:38:39;;;;;;;5.9;3.6;;;;;;;21.48;35.50488;957.2355;;;;
2020/04/17 11:41:04;;;;;;;7.4;4.1;;;;;;;21.74;35.13574;957.2379;;;;
2020/04/17 11:43:30;;;;;;;6.1;3.4;;;;;;;21.45;35.00684;957.1652;;;;
2020/04/17 11:45:55;;;;;;;7.6;3.5;;;;;;;21.42;36.63281;957.1699;;;;
2020/04/17 11:48:22;;;;;;;7;4.2;;;;;;;21.73;34.54395;957.1531;;;;
2020/04/17 11:50:47;;;;;;;7.7;3.8;;;;;;;21.99;35.33301;957.1661;;;;
2020/04/17 11:53:13;;;;;;;6.9;3.9;;;;;;;22.13;34.69336;957.1552;;;;
2020/04/17 11:55:39;;;;;;;8.4;4.1;;;;;;;22.17;34.04688;957.1188;;;;
2020/04/17 11:58:05;;;;;;;8;3.4;;;;;;;22.36;33.77832;957.1128;;;;
2020/04/17 12:00:30;;;;;;;14.7;5.3;;;;;;;22.43;33.27539;957.1096;;;;
2020/04/17 12:02:56;;;;;;;10.5;4.7;;;;;;;22.76;34.36426;957.1822;;;;
2020/04/17 12:05:21;;;;;;;7.3;4.2;;;;;;;22.68;32.61914;957.1848;;;;
2020/04/17 12:07:47;;;;;;;7.3;4.2;;;;;;;22.33;34.17773;957.0783;;;;
2020/04/17 12:10:12;;;;;;;9.1;3.8;;;;;;;22.69;34.99805;957.1031;;;;
2020/04/17 12:12:37;;;;;;;9.6;4.2;;;;;;;22.92;34.3418;957.0814;;;;
2020/04/17 12:15:02;;;;;;;8.3;4.4;;;;;;;22.96;33.23145;957.0922;;;;
2020/04/17 12:17:27;;;;;;;8.4;4.2;;;;;;;22.89;32.87109;957.0411;;;;
2020/04/17 12:19:53;;;;;;;8.2;4.2;;;;;;;22.88;32.17285;957.1618;;;;
2020/04/17 12:22:18;;;;;;;6.4;3.4;;;;;;;22.78;34.27148;957.0588;;;;
2020/04/17 12:24:43;;;;;;;8.6;3.6;;;;;;;23.04;32.63379;956.9883;;;;
2020/04/17 12:27:08;;;;;;;8;3.7;;;;;;;23.22;32.45801;956.9983;;;;
2020/04/17 12:29:35;;;;;;;6.3;3.4;;;;;;;23.63;32.74805;956.9528;;;;
2020/04/17 12:32:00;;;;;;;11;4;;;;;;;23.56;32.62402;956.904;;;;
2020/04/17 12:34:26;;;;;;;8;3.7;;;;;;;23.86;32.77734;956.9531;;;;
2020/04/17 12:36:52;;;;;;;9.2;3.5;;;;;;;24.03;32.6709;956.9492;;;;
2020/04/17 12:39:17;;;;;;;6;3.6;;;;;;;23.85;31.18652;956.9103;;;;
2020/04/17 12:41:46;;;;;;;10;4.3;;;;;;;23.5;32.34668;956.8755;;;;
2020/04/17 12:44:11;;;;;;;5.7;3.8;;;;;;;23.71;32.70605;956.8106;;;;
2020/04/17 12:46:37;;;;;;;7.5;3.9;;;;;;;23.91;32.40039;956.794;;;;
2020/04/17 12:49:02;;;;;;;6.2;3.6;;;;;;;24.16;31.57617;956.7726;;;;
2020/04/17 12:51:27;;;;;;;7.4;3.8;;;;;;;24.45;30.70605;956.7422;;;;
2020/04/17 12:53:52;;;;;;;7;3.8;;;;;;;24.92;29.87012;956.6998;;;;
2020/04/17 12:56:17;;;;;;;6.3;3.5;;;;;;;25.53;30.03027;956.7352;;;;
2020/04/17 12:58:42;;;;;;;6.5;3.5;;;;;;;25.55;29.19727;956.7137;;;;
2020/04/17 13:01:07;;;;;;;5.2;3.3;;;;;;;25.75;28.20996;956.6828;;;;
2020/04/17 13:03:32;;;;;;;6.9;3.2;;;;;;;26.01;28.20215;956.7283;;;;
2020/04/17 13:05:58;;;;;;;5.6;2.9;;;;;;;25.9;27.44531;956.6878;;;;
2020/04/17 13:08:23;;;;;;;7.2;3.2;;;;;;;25.56;27.30566;956.7158;;;;
2020/04/17 13:10:48;;;;;;;4.6;2.8;;;;;;;26.25;29.20703;956.7385;;;;
2020/04/17 13:13:13;;;;;;;6.2;2.8;;;;;;;26.51;26.56348;956.6895;;;;
2020/04/17 13:15:38;;;;;;;7.9;3.2;;;;;;;26.38;26.40039;956.6578;;;;
2020/04/17 13:18:03;;;;;;;7.1;3.6;;;;;;;25.69;27.02637;956.6047;;;;
2020/04/17 13:20:28;;;;;;;8.7;3.4;;;;;;;25.58;27.74707;956.6172;;;;
2020/04/17 13:22:54;;;;;;;7.6;3.4;;;;;;;25.35;28.05371;956.6066;;;;
2020/04/17 13:25:19;;;;;;;5.3;3.4;;;;;;;25.95;28.03223;956.5381;;;;
2020/04/17 13:27:45;;;;;;;5.3;2.7;;;;;;;26.63;28.82617;956.5625;;;;
2020/04/17 13:30:10;;;;;;;7.3;3;;;;;;;26.75;27.65234;956.5861;;;;
2020/04/17 13:32:35;;;;;;;5.6;3.1;;;;;;;26.99;26.43652;956.5681;;;;
2020/04/17 13:35:00;;;;;;;7.8;3.2;;;;;;;26.98;28.02441;956.5711;;;;
2020/04/17 13:37:25;;;;;;;7.6;3;;;;;;;27.28;26.13086;956.5207;;;;
2020/04/17 13:39:51;;;;;;;7.5;2.8;;;;;;;27.29;25.76074;956.5516;;;;
2020/04/17 13:42:16;;;;;;;5.3;2.7;;;;;;;27.86;25.62598;956.5264;;;;
2020/04/17 13:44:41;;;;;;;6.1;2.8;;;;;;;27.62;24.73926;956.4828;;;;
2020/04/17 13:47:06;;;;;;;8.3;3;;;;;;;26.6;25.67285;956.473;;;;
2020/04/17 13:49:31;;;;;;;5.7;2.9;;;;;;;26.9;27.00488;956.4453;;;;
2020/04/17 13:51:56;;;;;;;8.8;3.4;;;;;;;25.98;28.92773;956.4725;;;;
2020/04/17 13:54:22;;;;;;;8.7;2.9;;;;;;;25.74;28.16211;956.3541;;;;
2020/04/17 13:56:47;;;;;;;7.6;3.2;;;;;;;25.41;28.2002;956.2903;;;;
2020/04/17 13:59:12;;;;;;;8.5;3.5;;;;;;;24.59;29.09961;956.2507;;;;
2020/04/17 14:01:37;;;;;;;8.1;3.3;;;;;;;24.8;28.95898;956.2512;;;;
2020/04/17 14:04:04;;;;;;;8;3.3;;;;;;;24.91;28.7041;956.2455;;;;
2020/04/17 14:06:29;;;;;;;6.4;3;;;;;;;24.78;29.10059;956.2544;;;;
2020/04/17 14:08:56;;;;;;;9.3;3.2;;;;;;;24.65;29.19824;956.2558;;;;